createdAt,value
2023-03-22T00:01:32.433Z,8.10
2023-03-22T00:04:04.941Z,8.08
2023-03-22T00:06:33.324Z,8.08
2023-03-22T00:09:02.402Z,8.13
2023-03-22T00:11:30.738Z,8.14
2023-03-22T00:13:59.076Z,8.18
2023-03-22T00:16:28.069Z,8.20
2023-03-22T00:18:56.572Z,8.17
2023-03-22T00:21:25.790Z,8.18
2023-03-22T00:23:53.654Z,8.12
2023-03-22T00:26:21.217Z,8.15
2023-03-22T00:28:49.025Z,8.20
2023-03-22T00:31:16.681Z,8.13
2023-03-22T00:33:45.594Z,8.06
2023-03-22T00:36:14.474Z,8.02
2023-03-22T00:38:44.512Z,8.06
2023-03-22T00:41:14.136Z,8.04
2023-03-22T00:43:42.321Z,8.06
2023-03-22T00:46:10.758Z,7.99
2023-03-22T00:48:38.767Z,7.87
2023-03-22T00:51:07.434Z,7.91
2023-03-22T00:53:36.639Z,7.89
2023-03-22T00:56:07.476Z,7.90
2023-03-22T00:58:35.197Z,7.88
2023-03-22T01:01:02.990Z,7.88
2023-03-22T01:03:30.853Z,7.88
2023-03-22T01:05:58.684Z,7.76
2023-03-22T01:08:33.570Z,7.74
2023-03-22T01:11:02.189Z,7.66
2023-03-22T01:13:31.584Z,7.75
2023-03-22T01:15:59.198Z,7.67
2023-03-22T01:18:26.966Z,7.59
2023-03-22T01:20:54.908Z,7.49
2023-03-22T01:23:22.669Z,7.41
2023-03-22T01:25:50.668Z,7.50
2023-03-22T01:28:18.385Z,7.51
2023-03-22T01:30:47.581Z,7.45
2023-03-22T01:33:15.636Z,7.43
2023-03-22T01:35:43.613Z,7.39
2023-03-22T01:38:11.349Z,7.39
2023-03-22T01:40:39.759Z,7.32
2023-03-22T01:43:13.478Z,7.28
2023-03-22T01:45:43.742Z,7.29
2023-03-22T01:48:17.815Z,7.31
2023-03-22T01:50:49.623Z,7.25
2023-03-22T01:53:19.209Z,7.27
2023-03-22T01:55:48.078Z,7.25
2023-03-22T01:58:18.151Z,7.22
2023-03-22T02:00:46.333Z,7.20
2023-03-22T02:03:16.473Z,7.22
2023-03-22T02:05:44.802Z,7.23
2023-03-22T02:08:15.050Z,7.21
2023-03-22T02:10:43.138Z,7.20
2023-03-22T02:13:27.049Z,7.19
2023-03-22T02:16:03.372Z,7.20
2023-03-22T02:18:44.376Z,7.07
2023-03-22T02:21:39.784Z,7.09
2023-03-22T02:24:46.241Z,7.05
2023-03-22T02:27:24.700Z,7.05
2023-03-22T02:30:00.607Z,7.02
2023-03-22T02:32:51.804Z,7.05
2023-03-22T02:35:31.875Z,7.02
2023-03-22T02:38:14.931Z,6.99
2023-03-22T02:40:48.489Z,6.96
2023-03-22T02:43:19.985Z,6.94
2023-03-22T02:45:51.650Z,6.96
2023-03-22T02:48:26.432Z,6.89
2023-03-22T02:50:56.816Z,6.87
2023-03-22T02:53:27.406Z,6.90
2023-03-22T02:55:57.376Z,6.90
2023-03-22T02:58:27.628Z,6.83
2023-03-22T03:00:57.607Z,6.83
2023-03-22T03:03:27.105Z,6.76
2023-03-22T03:05:57.666Z,6.76
2023-03-22T03:08:27.284Z,6.71
2023-03-22T03:10:56.693Z,6.74
2023-03-22T03:13:24.294Z,6.73
2023-03-22T03:15:53.953Z,6.71
2023-03-22T03:18:35.011Z,6.70
2023-03-22T03:21:06.198Z,6.72
2023-03-22T03:23:41.672Z,6.58
2023-03-22T03:26:13.659Z,6.58
2023-03-22T03:28:49.759Z,6.55
2023-03-22T03:31:25.781Z,6.59
2023-03-22T03:33:59.203Z,6.58
2023-03-22T03:36:27.344Z,6.55
2023-03-22T03:38:56.327Z,6.57
2023-03-22T03:41:27.025Z,6.56
2023-03-22T03:43:55.926Z,6.58
2023-03-22T03:46:24.336Z,6.54
2023-03-22T03:48:53.197Z,6.55
2023-03-22T03:51:20.903Z,6.53
2023-03-22T03:53:48.483Z,6.54
2023-03-22T03:56:16.096Z,6.43
2023-03-22T03:58:45.128Z,6.37
2023-03-22T04:01:12.820Z,6.40
2023-03-22T04:03:40.363Z,6.35
2023-03-22T04:06:09.079Z,6.29
2023-03-22T04:08:36.658Z,6.32
2023-03-22T04:11:04.340Z,6.32
2023-03-22T04:13:31.945Z,6.25
2023-03-22T04:16:02.167Z,6.34
2023-03-22T04:18:30.121Z,6.31
2023-03-22T04:20:58.104Z,6.28
2023-03-22T04:23:25.885Z,6.31
2023-03-22T04:25:54.515Z,6.34
2023-03-22T04:28:22.082Z,6.36
2023-03-22T04:30:51.904Z,6.42
2023-03-22T04:33:22.721Z,6.44
2023-03-22T04:35:56.567Z,6.46
2023-03-22T04:38:25.200Z,6.44
2023-03-22T04:40:52.808Z,6.36
2023-03-22T04:43:20.452Z,6.39
2023-03-22T04:45:48.787Z,6.43
2023-03-22T04:48:17.505Z,6.38
2023-03-22T04:50:46.487Z,6.41
2023-03-22T04:53:14.184Z,6.45
2023-03-22T04:55:41.813Z,6.48
2023-03-22T04:58:09.381Z,6.48
2023-03-22T05:00:37.618Z,6.42
2023-03-22T05:03:05.839Z,6.45
2023-03-22T05:05:33.445Z,6.41
2023-03-22T05:08:02.386Z,6.46
2023-03-22T05:10:29.929Z,6.48
2023-03-22T05:12:57.453Z,6.53
2023-03-22T05:15:25.034Z,6.54
2023-03-22T05:17:52.615Z,6.54
2023-03-22T05:20:20.213Z,6.52
2023-03-22T05:22:50.453Z,6.57
2023-03-22T05:25:19.394Z,6.38
2023-03-22T05:27:50.129Z,6.36
2023-03-22T05:30:17.814Z,6.34
2023-03-22T05:32:45.839Z,6.33
2023-03-22T05:35:14.045Z,6.14
2023-03-22T05:37:41.720Z,6.17
2023-03-22T05:40:10.695Z,6.22
2023-03-22T05:42:39.656Z,6.23
2023-03-22T05:45:08.470Z,6.37
2023-03-22T05:47:36.145Z,6.42
2023-03-22T05:50:03.745Z,6.38
2023-03-22T05:52:31.307Z,6.44
2023-03-22T05:54:58.916Z,6.60
2023-03-22T05:57:26.518Z,6.64
2023-03-22T05:59:55.414Z,6.77
2023-03-22T06:02:23.126Z,6.72
2023-03-22T06:04:52.023Z,6.87
2023-03-22T06:07:19.837Z,6.97
2023-03-22T06:09:49.462Z,7.02
2023-03-22T06:12:17.037Z,7.04
2023-03-22T06:14:44.709Z,7.13
2023-03-22T06:17:13.615Z,7.22
2023-03-22T06:19:41.154Z,7.31
2023-03-22T06:22:08.683Z,7.43
2023-03-22T06:24:36.352Z,7.54
2023-03-22T06:27:03.935Z,7.62
2023-03-22T06:29:31.801Z,7.68
2023-03-22T06:31:59.377Z,7.71
2023-03-22T06:34:28.833Z,7.77
2023-03-22T06:36:56.522Z,7.88
2023-03-22T06:39:24.406Z,7.91
2023-03-22T06:41:51.967Z,7.96
2023-03-22T06:44:19.870Z,8.01
2023-03-22T06:46:47.373Z,8.05
2023-03-22T06:49:14.994Z,8.17
2023-03-22T06:51:43.902Z,8.23
2023-03-22T06:54:12.608Z,8.36
2023-03-22T06:56:40.325Z,8.52
2023-03-22T06:59:08.013Z,8.62
2023-03-22T07:01:35.859Z,8.81
2023-03-22T07:04:03.426Z,9.02
2023-03-22T07:06:32.591Z,9.23
2023-03-22T07:09:01.782Z,9.35
2023-03-22T07:11:29.432Z,9.39
2023-03-22T07:13:56.996Z,9.50
2023-03-22T07:16:24.563Z,9.66
2023-03-22T07:18:52.115Z,9.84
2023-03-22T07:21:19.707Z,10.12
2023-03-22T07:23:47.282Z,10.19
2023-03-22T07:26:16.390Z,10.47
2023-03-22T07:28:44.728Z,10.45
2023-03-22T07:31:13.403Z,10.49
2023-03-22T07:33:41.396Z,10.57
2023-03-22T07:36:10.622Z,10.64
2023-03-22T07:38:38.803Z,10.49
2023-03-22T07:41:07.165Z,10.67
2023-03-22T07:43:50.871Z,10.67
2023-03-22T07:46:21.352Z,10.79
2023-03-22T07:48:50.191Z,10.77
2023-03-22T07:51:19.196Z,10.91
2023-03-22T07:53:46.978Z,10.65
2023-03-22T07:56:15.457Z,10.85
2023-03-22T07:58:44.622Z,11.03
2023-03-22T08:01:12.514Z,11.30
2023-03-22T08:03:40.379Z,11.43
2023-03-22T08:06:08.970Z,11.65
2023-03-22T08:08:38.342Z,11.77
2023-03-22T08:11:06.384Z,11.85
2023-03-22T08:13:34.628Z,11.69
2023-03-22T08:16:03.841Z,11.53
2023-03-22T08:18:31.528Z,11.55
2023-03-22T08:21:00.455Z,11.49
2023-03-22T08:23:40.856Z,11.55
2023-03-22T08:26:09.618Z,11.49
2023-03-22T08:28:37.210Z,11.48
2023-03-22T08:31:14.735Z,11.39
2023-03-22T08:33:43.275Z,11.49
2023-03-22T08:36:12.771Z,11.58
2023-03-22T08:38:42.324Z,11.69
2023-03-22T08:41:09.913Z,11.81
2023-03-22T08:43:37.465Z,11.88
2023-03-22T08:46:05.741Z,11.73
2023-03-22T08:48:35.696Z,11.83
2023-03-22T08:51:04.659Z,11.72
2023-03-22T08:53:32.388Z,11.76
2023-03-22T08:56:01.784Z,11.82
2023-03-22T08:58:29.446Z,11.81
2023-03-22T09:00:57.098Z,11.87
2023-03-22T09:03:25.157Z,11.98
2023-03-22T09:05:54.321Z,12.04
2023-03-22T09:08:21.847Z,12.03
2023-03-22T09:10:51.863Z,11.94
2023-03-22T09:13:20.080Z,11.97
2023-03-22T09:15:48.213Z,11.96
2023-03-22T09:18:16.458Z,12.15
2023-03-22T09:20:44.731Z,12.09
2023-03-22T09:23:14.986Z,12.13
2023-03-22T09:25:43.940Z,12.18
2023-03-22T09:28:11.986Z,12.16
2023-03-22T09:30:39.949Z,12.30
2023-03-22T09:33:07.694Z,12.43
2023-03-22T09:35:35.353Z,12.61
2023-03-22T09:38:03.529Z,12.69
2023-03-22T09:40:34.710Z,12.98
2023-03-22T09:43:04.329Z,13.16
2023-03-22T09:45:38.406Z,13.25
2023-03-22T09:48:09.256Z,13.45
2023-03-22T09:50:45.079Z,13.53
2023-03-22T09:53:14.841Z,13.39
2023-03-22T09:55:46.759Z,13.52
2023-03-22T09:58:20.973Z,13.53
2023-03-22T10:00:50.368Z,13.66
2023-03-22T10:03:24.726Z,13.98
2023-03-22T10:05:55.120Z,14.04
2023-03-22T10:08:36.415Z,14.07
2023-03-22T10:11:08.589Z,14.28
2023-03-22T10:13:39.431Z,14.33
2023-03-22T10:16:09.208Z,14.40
2023-03-22T10:18:38.220Z,14.51
2023-03-22T10:21:07.734Z,14.50
2023-03-22T10:23:39.417Z,14.73
2023-03-22T10:26:08.995Z,14.88
2023-03-22T10:28:40.367Z,14.98
2023-03-22T10:31:13.942Z,15.05
2023-03-22T10:33:50.151Z,15.23
2023-03-22T10:36:19.429Z,15.41
2023-03-22T10:38:48.920Z,15.45
2023-03-22T10:41:20.006Z,15.41
2023-03-22T10:43:50.689Z,15.41
2023-03-22T10:46:20.820Z,15.16
2023-03-22T10:48:50.725Z,15.13
2023-03-22T10:51:24.337Z,15.27
2023-03-22T10:53:53.025Z,15.45
2023-03-22T10:56:22.507Z,15.34
2023-03-22T10:58:50.917Z,15.58
2023-03-22T11:01:27.925Z,15.63
2023-03-22T11:03:59.033Z,15.51
2023-03-22T11:06:29.845Z,15.77
2023-03-22T11:08:59.857Z,15.92
2023-03-22T11:11:30.357Z,16.01
2023-03-22T11:14:02.850Z,16.00
2023-03-22T11:16:32.006Z,16.12
2023-03-22T11:19:02.441Z,16.22
2023-03-22T11:21:32.014Z,16.06
2023-03-22T11:24:02.020Z,16.21
2023-03-22T11:26:35.679Z,16.15
2023-03-22T11:29:11.984Z,16.16
2023-03-22T11:31:55.545Z,16.50
2023-03-22T11:34:26.245Z,16.34
2023-03-22T11:36:56.891Z,16.55
2023-03-22T11:39:28.215Z,16.53
2023-03-22T11:42:01.214Z,16.70
2023-03-22T11:44:33.926Z,16.54
2023-03-22T11:47:02.875Z,16.62
2023-03-22T11:49:38.820Z,16.48
2023-03-22T11:52:12.194Z,16.57
2023-03-22T11:54:42.448Z,16.68
2023-03-22T11:57:16.795Z,16.82
2023-03-22T11:59:48.622Z,16.70
2023-03-22T12:02:21.663Z,16.91
2023-03-22T12:04:51.614Z,16.91
2023-03-22T12:07:24.409Z,16.93
2023-03-22T12:09:55.693Z,17.13
2023-03-22T12:12:27.261Z,17.14
2023-03-22T12:14:58.943Z,17.06
2023-03-22T12:17:31.679Z,16.97
2023-03-22T12:20:06.731Z,17.06
2023-03-22T12:22:35.859Z,17.02
2023-03-22T12:25:03.627Z,17.25
2023-03-22T12:27:35.295Z,17.20
2023-03-22T12:30:07.994Z,17.32
2023-03-22T12:32:38.609Z,17.47
2023-03-22T12:35:17.199Z,17.38
2023-03-22T12:37:47.732Z,17.38
2023-03-22T12:40:24.394Z,17.42
2023-03-22T12:43:00.355Z,17.57
2023-03-22T12:45:29.271Z,17.25
2023-03-22T12:48:00.633Z,17.33
2023-03-22T12:50:32.487Z,17.46
2023-03-22T12:53:02.301Z,17.66
2023-03-22T12:55:32.292Z,17.59
2023-03-22T12:58:01.831Z,17.52
2023-03-22T13:00:35.216Z,17.57
2023-03-22T13:03:04.487Z,17.47
2023-03-22T13:05:35.430Z,17.40
2023-03-22T13:08:05.655Z,17.41
2023-03-22T13:10:50.050Z,17.40
2023-03-22T13:13:43.388Z,17.38
2023-03-22T13:16:22.738Z,17.28
2023-03-22T13:19:06.557Z,17.10
2023-03-22T13:21:36.543Z,17.08
2023-03-22T13:24:23.496Z,17.22
2023-03-22T13:26:52.822Z,17.09
2023-03-22T13:29:24.368Z,17.31
2023-03-22T13:31:58.952Z,17.22
2023-03-22T13:34:38.115Z,17.22
2023-03-22T13:37:10.975Z,17.04
2023-03-22T13:39:39.359Z,16.87
2023-03-22T13:42:19.639Z,16.95
2023-03-22T13:44:53.315Z,16.90
2023-03-22T13:47:33.300Z,16.97
2023-03-22T13:50:11.052Z,17.17
2023-03-22T13:52:41.669Z,17.36
2023-03-22T13:55:32.172Z,17.21
2023-03-22T13:58:01.747Z,17.11
2023-03-22T14:00:44.782Z,17.03
2023-03-22T14:03:17.145Z,17.00
2023-03-22T14:05:47.231Z,17.11
2023-03-22T14:08:21.823Z,16.90
2023-03-22T14:10:52.877Z,16.62
2023-03-22T14:13:26.603Z,16.70
2023-03-22T14:15:57.684Z,16.70
2023-03-22T14:18:27.006Z,16.67
2023-03-22T14:20:58.827Z,16.76
